Time;durP1;ratioP1;P1;durP2;ratioP2;P2;SDS_P1;SDS_P2;PMS_P1;PMS_P2;Temp;Humidity;BMP_temperature;BMP_pressure;BME280_temperature;BME280_humidity;BME280_pressure;Samples;Min_cycle;Max_cycle;Signal;HPM_P1;HPM_P2
2024/02/13 00:01:41;;;;;;;6.65;2.05;;;;;;;5.27;100.00;99614.16;4938209;29;20039;-94
2024/02/13 00:04:10;;;;;;;10.88;1.92;;;;;;;5.27;100.00;99622.00;4921872;29;20089;-94
2024/02/13 00:06:41;;;;;;;6.05;1.50;;;;;;;5.22;100.00;99617.97;4919174;29;20592;-95
2024/02/13 00:09:09;;;;;;;8.07;1.73;;;;;;;5.24;100.00;99623.09;4922675;28;20046;-95
2024/02/13 00:11:35;;;;;;;5.47;1.77;;;;;;;5.29;100.00;99627.94;4924036;28;20043;-94
2024/02/13 00:14:02;;;;;;;4.38;1.10;;;;;;;5.32;100.00;99623.28;4906857;29;20500;-95
2024/02/13 00:16:28;;;;;;;7.20;1.40;;;;;;;5.34;100.00;99631.84;4940314;28;20679;-95
2024/02/13 00:18:55;;;;;;;6.38;1.83;;;;;;;5.38;100.00;99637.66;4923103;28;20110;-92
2024/02/13 00:21:22;;;;;;;9.38;2.13;;;;;;;5.37;100.00;99637.78;4924544;28;20027;-93
2024/02/13 00:23:48;;;;;;;6.32;1.98;;;;;;;5.36;100.00;99633.50;4942510;28;20465;-94
2024/02/13 00:26:14;;;;;;;7.10;1.90;;;;;;;5.41;100.00;99636.56;4932421;29;20126;-93
2024/02/13 00:28:40;;;;;;;5.95;1.85;;;;;;;5.41;100.00;99636.56;4940155;28;20053;-94
2024/02/13 00:31:07;;;;;;;7.10;2.20;;;;;;;5.42;100.00;99639.03;4930493;28;20045;-94
2024/02/13 00:33:54;;;;;;;6.57;2.13;;;;;;;5.46;100.00;99637.00;4942341;29;20170;-94
2024/02/13 00:36:21;;;;;;;9.02;2.03;;;;;;;5.42;100.00;99639.03;4940796;29;20489;-94
2024/02/13 00:38:47;;;;;;;7.07;1.90;;;;;;;5.48;100.00;99644.72;4924776;28;20039;-93
2024/02/13 00:41:14;;;;;;;5.45;2.10;;;;;;;5.45;100.00;99636.16;4943745;28;20031;-94
2024/02/13 00:43:40;;;;;;;5.85;1.35;;;;;;;5.46;100.00;99629.94;4953843;28;20039;-94
2024/02/13 00:46:06;;;;;;;7.88;1.33;;;;;;;5.45;100.00;99625.69;4928439;28;20038;-94
2024/02/13 00:48:33;;;;;;;4.03;1.33;;;;;;;5.46;100.00;99624.72;4937714;29;20032;-94
2024/02/13 00:50:59;;;;;;;9.77;1.67;;;;;;;5.42;100.00;99618.09;4938589;28;20031;-93
2024/02/13 00:53:25;;;;;;;7.15;1.83;;;;;;;5.42;100.00;99622.47;4925667;28;20498;-93
2024/02/13 00:55:51;;;;;;;7.00;2.47;;;;;;;5.41;100.00;99618.22;4942567;28;20079;-93
2024/02/13 00:58:21;;;;;;;14.07;4.85;;;;;;;5.37;100.00;99615.00;4940704;28;20046;-93
2024/02/13 01:00:49;;;;;;;12.10;4.20;;;;;;;5.37;100.00;99625.50;4974072;28;20027;-93
2024/02/13 01:03:15;;;;;;;8.23;2.92;;;;;;;5.33;100.00;99604.00;4927290;28;20907;-92
2024/02/13 01:05:42;;;;;;;8.13;3.53;;;;;;;5.36;100.00;99618.59;4953312;28;20054;-92
2024/02/13 01:08:10;;;;;;;11.80;3.42;;;;;;;5.35;100.00;99624.81;4928821;28;20038;-94
2024/02/13 01:10:36;;;;;;;10.23;2.85;;;;;;;5.31;100.00;99619.00;4927605;28;20132;-93
2024/02/13 01:13:02;;;;;;;8.18;2.67;;;;;;;5.31;100.00;99613.75;4951650;28;20039;-94
2024/02/13 01:15:29;;;;;;;7.35;1.80;;;;;;;5.30;100.00;99621.75;4924404;28;20121;-93
2024/02/13 01:17:55;;;;;;;7.35;2.35;;;;;;;5.25;100.00;99619.53;4938890;28;20177;-93
2024/02/13 01:20:24;;;;;;;13.45;3.83;;;;;;;5.24;100.00;99612.59;4927211;28;20027;-93
2024/02/13 01:22:51;;;;;;;8.50;2.25;;;;;;;5.22;100.00;99609.31;4944621;28;20042;-92
2024/02/13 01:25:17;;;;;;;6.68;1.90;;;;;;;5.15;100.00;99603.75;4923409;28;20042;-94
2024/02/13 01:27:47;;;;;;;16.55;2.67;;;;;;;5.16;100.00;99612.44;4933408;28;20062;-93
2024/02/13 01:30:16;;;;;;;14.10;1.50;;;;;;;5.18;100.00;99608.72;4929824;28;20174;-93
2024/02/13 01:32:42;;;;;;;4.28;1.52;;;;;;;5.16;100.00;99610.63;4931596;28;20058;-93
2024/02/13 01:35:16;;;;;;;9.82;1.55;;;;;;;5.12;100.00;99601.38;4927036;28;20125;-93
2024/02/13 01:37:56;;;;;;;12.07;3.67;;;;;;;5.08;100.00;99602.63;4943405;28;20039;-94
2024/02/13 01:40:25;;;;;;;9.25;1.88;;;;;;;5.05;100.00;99600.22;4926339;28;20500;-93
2024/02/13 01:42:51;;;;;;;8.13;1.85;;;;;;;5.07;100.00;99603.56;4927287;28;20046;-93
2024/02/13 01:45:18;;;;;;;9.75;1.90;;;;;;;5.05;100.00;99602.84;4927043;28;20133;-93
2024/02/13 01:47:55;;;;;;;9.82;1.75;;;;;;;5.05;100.00;99602.84;4943612;28;20038;-93
2024/02/13 01:50:22;;;;;;;9.43;2.00;;;;;;;5.04;100.00;99601.19;4921462;28;20042;-93
2024/02/13 01:52:49;;;;;;;9.52;1.30;;;;;;;5.06;100.00;99610.59;4942527;28;20042;-93
2024/02/13 01:55:28;;;;;;;8.48;1.92;;;;;;;5.05;100.00;99605.47;4931708;28;20031;-93
2024/02/13 01:57:59;;;;;;;5.57;1.30;;;;;;;5.08;100.00;99613.91;4928280;28;20059;-93
2024/02/13 02:00:32;;;;;;;10.10;1.37;;;;;;;5.09;100.00;99614.75;4940952;28;20565;-93
2024/02/13 02:02:59;;;;;;;7.80;1.25;;;;;;;5.08;100.00;99607.84;4927670;28;20073;-93
2024/02/13 02:05:51;;;;;;;3.80;1.10;;;;;;;5.18;100.00;99602.66;4941496;28;20038;-93
2024/02/13 02:08:23;;;;;;;3.67;1.20;;;;;;;5.10;100.00;99600.69;4943700;28;20429;-93
2024/02/13 02:10:53;;;;;;;4.53;1.40;;;;;;;5.05;100.00;99598.44;4949538;28;20034;-93
2024/02/13 02:13:25;;;;;;;5.35;1.23;;;;;;;4.98;100.00;99605.19;4937341;28;20039;-93
2024/02/13 02:16:19;;;;;;;4.90;1.13;;;;;;;4.93;100.00;99604.72;4929064;28;20034;-93
2024/02/13 02:18:45;;;;;;;7.78;1.25;;;;;;;4.83;100.00;99610.72;4955280;28;20448;-93
2024/02/13 02:21:13;;;;;;;11.68;1.45;;;;;;;4.75;100.00;99599.22;4938870;29;20050;-93
2024/02/13 02:23:45;;;;;;;6.88;1.13;;;;;;;4.78;100.00;99604.22;4922231;28;20039;-93
2024/02/13 02:26:39;;;;;;;6.03;1.52;;;;;;;4.78;100.00;99607.66;4949601;28;20034;-92
2024/02/13 02:29:14;;;;;;;8.32;1.10;;;;;;;4.76;100.00;99606.94;4934247;28;20054;-93
2024/02/13 02:31:44;;;;;;;6.50;1.30;;;;;;;4.74;100.00;99598.41;4926620;28;20034;-94
2024/02/13 02:34:18;;;;;;;11.45;1.25;;;;;;;4.75;100.00;99594.81;4933024;28;20035;-93
2024/02/13 02:36:50;;;;;;;8.55;1.08;;;;;;;4.74;100.00;99597.56;4926943;28;20042;-93
2024/02/13 02:40:18;;;;;;;11.15;1.10;;;;;;;4.80;100.00;99603.13;4950409;28;20061;-93
2024/02/13 02:42:42;;;;;;;3.30;0.90;;;;;;;4.70;100.00;99589.13;4956086;28;20043;-93
2024/02/13 02:45:46;;;;;;;8.68;1.35;;;;;;;4.84;100.00;99588.81;4935824;28;20098;-93
2024/02/13 02:48:19;;;;;;;5.80;1.60;;;;;;;4.75;100.00;99588.75;4936377;28;20035;-93
2024/02/13 02:51:09;;;;;;;7.22;0.90;;;;;;;4.76;100.00;99590.44;4950977;28;20106;-93
2024/02/13 02:53:35;;;;;;;8.15;1.20;;;;;;;4.67;100.00;99594.63;4925062;28;20042;-93
2024/02/13 02:56:02;;;;;;;8.48;1.50;;;;;;;4.64;100.00;99587.88;4941285;28;20039;-93
2024/02/13 02:58:28;;;;;;;6.18;1.55;;;;;;;4.64;100.00;99594.88;4929948;28;20070;-93
2024/02/13 03:00:54;;;;;;;9.50;2.20;;;;;;;4.53;100.00;99580.06;4920953;28;20050;-93
2024/02/13 03:03:20;;;;;;;7.53;1.35;;;;;;;4.51;100.00;99582.81;4950621;28;20907;-93
2024/02/13 03:05:51;;;;;;;8.20;0.90;;;;;;;4.50;100.00;99582.94;4942410;28;20034;-93
2024/02/13 03:08:37;;;;;;;10.70;1.55;;;;;;;4.47;100.00;99584.03;4933777;28;20493;-93
2024/02/13 03:11:06;;;;;;;5.97;1.40;;;;;;;4.49;100.00;99581.28;4949424;28;20046;-94
2024/02/13 03:13:32;;;;;;;3.95;0.98;;;;;;;4.44;100.00;99589.50;4950082;28;20622;-93
2024/02/13 03:16:03;;;;;;;5.22;1.15;;;;;;;4.38;100.00;99587.41;4923100;28;20134;-93
2024/02/13 03:18:32;;;;;;;5.63;1.10;;;;;;;4.37;100.00;99586.56;4928808;28;20553;-94
2024/02/13 03:20:58;;;;;;;4.25;1.20;;;;;;;4.34;100.00;99585.03;4923476;28;20042;-93
2024/02/13 03:23:28;;;;;;;14.43;1.45;;;;;;;4.35;100.00;99583.22;4946628;28;20040;-93
2024/02/13 03:25:55;;;;;;;3.50;0.73;;;;;;;4.34;100.00;99587.66;4947476;28;20186;-92
2024/02/13 03:28:41;;;;;;;5.43;0.90;;;;;;;4.31;100.00;99589.69;4960768;28;20137;-93
2024/02/13 03:31:07;;;;;;;6.68;1.00;;;;;;;4.33;100.00;99583.34;4922739;29;20298;-93
2024/02/13 03:33:37;;;;;;;5.55;1.00;;;;;;;4.30;100.00;99588.03;4937596;29;20046;-93
2024/02/13 03:36:06;;;;;;;3.97;0.82;;;;;;;4.31;100.00;99585.28;4944550;28;20030;-93
2024/02/13 03:38:32;;;;;;;7.28;1.15;;;;;;;4.31;100.00;99587.06;4931718;28;20069;-93
2024/02/13 03:40:59;;;;;;;4.53;0.75;;;;;;;4.33;100.00;99588.59;4924942;28;20046;-94
2024/02/13 03:43:26;;;;;;;6.68;1.27;;;;;;;4.33;100.00;99587.78;4914818;28;20118;-93
2024/02/13 03:45:53;;;;;;;11.35;1.40;;;;;;;4.35;100.00;99591.06;4965898;28;20042;-93
2024/02/13 03:48:20;;;;;;;4.15;1.05;;;;;;;4.30;100.00;99594.06;4936125;28;20035;-93
2024/02/13 03:50:46;;;;;;;9.18;1.15;;;;;;;4.32;100.00;99591.31;4922830;28;20090;-93
2024/02/13 03:53:13;;;;;;;3.70;1.05;;;;;;;4.39;100.00;99595.13;4931889;28;20396;-93
2024/02/13 03:55:39;;;;;;;5.00;1.05;;;;;;;4.37;100.00;99586.56;4938958;28;20042;-92
2024/02/13 03:58:05;;;;;;;7.28;0.85;;;;;;;4.45;100.00;99591.16;4922563;28;20043;-93
2024/02/13 04:00:34;;;;;;;5.70;1.50;;;;;;;4.45;100.00;99583.31;4922372;29;20454;-93
2024/02/13 04:03:00;;;;;;;5.55;1.55;;;;;;;4.47;100.00;99576.97;4906974;29;20053;-92
2024/02/13 04:05:26;;;;;;;7.07;1.00;;;;;;;4.54;100.00;99579.94;4921332;28;20109;-92
2024/02/13 04:07:54;;;;;;;5.00;1.15;;;;;;;4.49;100.00;99579.47;4920074;28;20036;-91
2024/02/13 04:10:20;;;;;;;5.60;0.98;;;;;;;4.53;100.00;99577.44;4910265;28;20133;-93
2024/02/13 04:12:54;;;;;;;9.00;1.20;;;;;;;4.50;100.00;99565.44;4925044;28;20171;-94
2024/02/13 04:15:20;;;;;;;8.32;0.90;;;;;;;4.51;100.00;99568.91;4899421;28;20688;-93
2024/02/13 04:17:51;;;;;;;8.65;1.15;;;;;;;4.52;100.00;99573.19;4906479;29;20035;-93
2024/02/13 04:20:17;;;;;;;5.20;1.10;;;;;;;4.58;100.00;99575.28;4944039;28;20062;-93
2024/02/13 04:22:43;;;;;;;8.40;1.10;;;;;;;4.57;100.00;99571.81;4924661;28;20187;-93
2024/02/13 04:25:10;;;;;;;3.35;1.25;;;;;;;4.61;100.00;99572.41;4940125;29;20182;-93
2024/02/13 04:27:37;;;;;;;6.72;1.45;;;;;;;4.63;100.00;99573.13;4937060;28;20032;-93
2024/02/13 04:30:04;;;;;;;6.70;1.02;;;;;;;4.67;100.00;99578.91;4915595;28;20478;-93
2024/02/13 04:32:32;;;;;;;5.28;1.20;;;;;;;4.70;100.00;99583.91;4944512;28;20515;-92
2024/02/13 04:35:00;;;;;;;13.13;0.90;;;;;;;4.70;100.00;99582.13;4923061;28;20034;-93
2024/02/13 04:37:26;;;;;;;3.47;1.02;;;;;;;4.74;100.00;99576.63;4905637;28;20082;-93
2024/02/13 04:39:55;;;;;;;7.40;1.30;;;;;;;4.72;100.00;99568.91;4954986;28;20034;-93
2024/02/13 04:42:36;;;;;;;3.75;1.00;;;;;;;4.80;100.00;99568.25;4934547;28;20063;-93
2024/02/13 04:45:03;;;;;;;3.05;0.63;;;;;;;4.80;100.00;99573.50;4905507;29;20719;-93
2024/02/13 04:47:33;;;;;;;6.53;1.00;;;;;;;4.75;100.00;99566.03;4940055;29;20374;-93
2024/02/13 04:50:00;;;;;;;8.23;1.10;;;;;;;4.77;100.00;99569.34;4939443;28;20096;-93
2024/02/13 04:52:27;;;;;;;4.28;1.08;;;;;;;4.78;100.00;99567.56;4938735;28;20042;-93
2024/02/13 04:54:56;;;;;;;3.88;0.85;;;;;;;4.83;100.00;99568.00;4923181;29;20035;-93
2024/02/13 04:57:24;;;;;;;4.90;1.10;;;;;;;4.80;100.00;99561.25;4925706;28;20105;-92
2024/02/13 04:59:51;;;;;;;6.68;1.05;;;;;;;4.80;100.00;99563.03;4964626;28;20039;-93
2024/02/13 05:02:24;;;;;;;12.57;0.95;;;;;;;4.83;100.00;99563.59;4948400;28;20038;-93
2024/02/13 05:07:36;;;;;;;6.53;1.55;;;;;;;4.84;100.00;99565.25;4938573;28;20131;-93
2024/02/13 05:10:03;;;;;;;11.15;1.13;;;;;;;4.83;100.00;99560.97;4944571;28;20775;-93
2024/02/13 05:12:33;;;;;;;6.10;0.93;;;;;;;4.83;100.00;99553.13;4955672;28;20047;-93
2024/02/13 05:15:02;;;;;;;3.58;1.00;;;;;;;4.86;100.00;99561.69;4927794;28;20810;-93
2024/02/13 05:17:30;;;;;;;8.48;1.35;;;;;;;4.87;100.00;99560.72;4933630;28;20038;-93
2024/02/13 05:19:58;;;;;;;4.68;1.08;;;;;;;4.85;100.00;99566.09;4944308;29;20031;-93
2024/02/13 05:22:24;;;;;;;5.45;0.93;;;;;;;4.81;100.00;99552.41;4927457;28;20039;-93
2024/02/13 05:24:50;;;;;;;6.57;1.27;;;;;;;4.80;100.00;99558.63;4950281;28;20042;-93
2024/02/13 05:27:16;;;;;;;5.47;1.05;;;;;;;4.83;100.00;99560.97;4943766;28;20027;-93
2024/02/13 05:29:43;;;;;;;9.55;1.10;;;;;;;4.81;100.00;99554.22;4932416;28;20030;-93
2024/02/13 05:32:14;;;;;;;6.80;0.75;;;;;;;4.83;100.00;99553.13;4926216;28;20065;-93
2024/02/13 05:34:41;;;;;;;2.47;0.82;;;;;;;4.80;100.00;99553.38;4965277;28;20034;-93
2024/02/13 05:37:09;;;;;;;4.53;1.02;;;;;;;4.76;100.00;99546.72;4941507;28;20129;-94
2024/02/13 05:39:36;;;;;;;4.85;1.60;;;;;;;4.70;100.00;99542.84;4927368;28;20034;-93
2024/02/13 05:42:02;;;;;;;9.77;0.90;;;;;;;4.68;100.00;99546.56;4926808;28;20031;-93
2024/02/13 05:44:28;;;;;;;4.95;0.75;;;;;;;4.66;100.00;99548.47;4948239;28;20034;-93
2024/02/13 05:46:57;;;;;;;8.02;0.95;;;;;;;4.62;100.00;99534.00;4951709;28;20058;-94
2024/02/13 05:49:24;;;;;;;2.05;0.70;;;;;;;4.61;100.00;99545.41;4943036;28;20038;-93
2024/02/13 05:51:59;;;;;;;6.85;1.20;;;;;;;4.56;100.00;99544.00;4927551;28;20125;-93
2024/02/13 05:54:26;;;;;;;4.60;1.02;;;;;;;4.59;100.00;99546.38;4928594;28;20043;-93
2024/02/13 05:56:52;;;;;;;7.20;1.15;;;;;;;4.61;100.00;99541.00;4937632;29;20047;-93
2024/02/13 05:59:23;;;;;;;2.17;0.65;;;;;;;4.65;100.00;99544.19;4930944;28;20053;-93
2024/02/13 06:01:52;;;;;;;7.32;1.35;;;;;;;4.63;100.00;99536.47;4922715;28;20050;-93
2024/02/13 06:04:18;;;;;;;6.00;0.98;;;;;;;4.68;100.00;99534.28;4913825;28;20034;-93
2024/02/13 06:06:50;;;;;;;6.05;1.13;;;;;;;4.69;100.00;99535.13;4955429;28;20126;-94
2024/02/13 06:09:24;;;;;;;6.82;1.05;;;;;;;4.67;100.00;99530.03;4938939;28;20090;-93
2024/02/13 06:11:52;;;;;;;9.48;1.35;;;;;;;4.70;100.00;99527.13;4921628;29;20103;-92
2024/02/13 06:14:18;;;;;;;5.18;0.90;;;;;;;4.66;100.00;99520.53;4906794;28;20140;-93
2024/02/13 06:16:45;;;;;;;4.97;1.40;;;;;;;4.64;100.00;99514.56;4942550;28;20114;-93
2024/02/13 06:19:12;;;;;;;7.63;1.10;;;;;;;4.68;100.00;99510.72;4925757;28;20047;-93
2024/02/13 06:21:38;;;;;;;6.63;1.05;;;;;;;4.67;100.00;99511.69;4938594;29;20031;-93
2024/02/13 06:24:04;;;;;;;5.82;0.95;;;;;;;4.74;100.00;99514.63;4928789;29;20054;-93
2024/02/13 06:26:30;;;;;;;7.07;0.95;;;;;;;4.75;100.00;99508.44;4954032;28;20038;-93
2024/02/13 06:28:56;;;;;;;5.25;1.13;;;;;;;4.71;100.00;99499.19;4920110;29;20397;-93
2024/02/13 06:31:23;;;;;;;5.45;1.02;;;;;;;4.63;100.00;99499.84;4942567;28;20035;-93
2024/02/13 06:33:49;;;;;;;7.30;1.60;;;;;;;4.62;100.00;99492.91;4923726;29;20953;-93
2024/02/13 06:36:17;;;;;;;5.20;1.20;;;;;;;4.69;100.00;99503.72;4932071;28;20101;-93
2024/02/13 06:38:43;;;;;;;4.40;1.13;;;;;;;4.66;100.00;99496.97;4941616;28;20065;-93
2024/02/13 06:41:10;;;;;;;4.47;1.00;;;;;;;4.74;100.00;99501.53;4938942;29;20450;-93
2024/02/13 06:43:36;;;;;;;7.70;1.48;;;;;;;4.75;100.00;99497.13;4933011;29;20105;-93
2024/02/13 06:46:03;;;;;;;6.72;1.45;;;;;;;4.71;100.00;99493.94;4911929;29;20035;-93
2024/02/13 06:48:30;;;;;;;6.13;1.85;;;;;;;4.58;100.00;99484.53;4921574;29;20035;-94
2024/02/13 06:50:56;;;;;;;6.82;1.48;;;;;;;4.56;100.00;99494.28;4936587;28;20042;-93
2024/02/13 06:53:22;;;;;;;3.75;0.93;;;;;;;4.55;100.00;99490.00;4941347;28;20043;-93
2024/02/13 06:55:48;;;;;;;4.15;1.00;;;;;;;4.50;100.00;99486.09;4956546;28;20700;-93
2024/02/13 06:58:16;;;;;;;8.23;1.00;;;;;;;4.53;100.00;99491.91;4933055;28;20046;-93
2024/02/13 07:00:43;;;;;;;5.82;1.25;;;;;;;4.54;100.00;99487.53;4944299;28;20046;-93
2024/02/13 07:03:10;;;;;;;5.53;0.88;;;;;;;4.59;100.00;99491.41;4928548;28;20047;-93
2024/02/13 07:05:37;;;;;;;5.53;1.08;;;;;;;4.61;100.00;99498.28;4949648;28;20109;-93
2024/02/13 07:08:03;;;;;;;5.65;0.85;;;;;;;4.55;100.00;99491.78;4948933;28;20485;-93
2024/02/13 07:10:30;;;;;;;6.18;1.02;;;;;;;4.55;100.00;99499.63;4925567;28;20051;-93
2024/02/13 07:13:08;;;;;;;5.40;1.02;;;;;;;4.56;100.00;99490.81;4950946;28;20052;-93
2024/02/13 07:15:36;;;;;;;4.30;0.93;;;;;;;4.52;100.00;99498.13;4945114;28;20042;-93
2024/02/13 07:18:03;;;;;;;4.28;1.30;;;;;;;4.44;100.00;99497.94;4940816;28;20105;-93
2024/02/13 07:20:29;;;;;;;4.25;1.20;;;;;;;4.36;100.00;99497.72;4942337;28;20047;-93
2024/02/13 07:22:56;;;;;;;6.78;1.73;;;;;;;4.37;100.00;99500.22;4924562;28;20042;-93
2024/02/13 07:25:22;;;;;;;7.45;1.77;;;;;;;4.45;100.00;99507.44;4928670;28;20060;-93
2024/02/13 07:27:51;;;;;;;13.88;2.08;;;;;;;4.39;100.00;99495.69;4924155;28;20030;-93
2024/02/13 07:30:17;;;;;;;6.07;2.35;;;;;;;4.52;100.00;99505.97;4924472;28;20122;-93
2024/02/13 07:32:47;;;;;;;6.88;1.92;;;;;;;4.51;100.00;99503.47;4929847;28;20125;-93
2024/02/13 07:35:14;;;;;;;6.47;1.52;;;;;;;4.51;100.00;99501.69;4936282;28;20026;-93
2024/02/13 07:37:48;;;;;;;8.57;1.95;;;;;;;4.54;100.00;99490.94;4952936;28;20070;-93
2024/02/13 07:40:14;;;;;;;4.32;1.60;;;;;;;4.57;100.00;99500.34;4933446;28;20034;-93
2024/02/13 07:42:40;;;;;;;2.97;1.10;;;;;;;4.49;100.00;99497.53;4925634;28;20035;-93
2024/02/13 07:45:06;;;;;;;8.00;1.50;;;;;;;4.51;100.00;99501.69;4924253;28;20035;-93
2024/02/13 07:47:35;;;;;;;4.85;1.20;;;;;;;4.48;100.00;99491.47;4944374;28;20094;-93
2024/02/13 07:50:01;;;;;;;4.35;1.30;;;;;;;4.50;100.00;99496.56;4940938;28;20480;-93
2024/02/13 07:52:27;;;;;;;4.38;1.13;;;;;;;4.54;100.00;99495.38;4941330;28;20129;-93
2024/02/13 07:54:53;;;;;;;12.32;1.58;;;;;;;4.56;100.00;99502.13;4921965;28;20050;-93
2024/02/13 07:57:21;;;;;;;7.18;1.67;;;;;;;4.59;100.00;99496.63;4930991;29;20058;-94
2024/02/13 07:59:54;;;;;;;10.30;1.73;;;;;;;4.57;100.00;99482.03;4934669;29;20129;-93
2024/02/13 08:02:22;;;;;;;9.60;2.03;;;;;;;4.63;100.00;99480.69;4921477;29;20030;-93
2024/02/13 08:04:48;;;;;;;5.88;1.10;;;;;;;4.66;100.00;99480.41;4921262;28;20118;-93
2024/02/13 08:07:14;;;;;;;5.55;1.58;;;;;;;4.70;100.00;99480.03;4920054;28;20036;-90
2024/02/13 08:09:40;;;;;;;4.70;1.60;;;;;;;4.71;100.00;99479.06;4926053;28;20050;-90
2024/02/13 08:12:06;;;;;;;3.90;1.30;;;;;;;4.76;100.00;99483.91;4909528;28;20521;-94
2024/02/13 08:14:33;;;;;;;7.05;1.40;;;;;;;4.82;100.00;99493.88;4912982;28;20127;-93
2024/02/13 08:16:59;;;;;;;6.93;1.80;;;;;;;4.83;100.00;99489.44;4932966;29;20067;-93
2024/02/13 08:19:26;;;;;;;2.92;1.33;;;;;;;4.89;100.00;99490.72;4922085;29;20098;-93
2024/02/13 08:21:52;;;;;;;6.20;1.40;;;;;;;4.89;100.00;99490.72;4908751;28;20042;-94
2024/02/13 08:24:19;;;;;;;8.35;1.60;;;;;;;4.89;100.00;99496.78;4915867;29;20098;-94
2024/02/13 08:26:45;;;;;;;4.95;1.38;;;;;;;4.82;100.00;99487.78;4933600;28;20434;-93
2024/02/13 08:29:10;;;;;;;6.97;1.50;;;;;;;4.82;100.00;99488.63;4961863;28;20035;-94
2024/02/13 08:31:36;;;;;;;6.47;1.65;;;;;;;4.82;100.00;99487.78;4915985;29;20039;-91
2024/02/13 08:34:02;;;;;;;9.25;2.58;;;;;;;4.79;100.00;99488.91;4936769;29;20127;-90
2024/02/13 08:36:29;;;;;;;9.43;2.50;;;;;;;4.81;100.00;99488.78;4920866;28;20039;-93
2024/02/13 08:38:55;;;;;;;10.65;3.47;;;;;;;4.83;100.00;99482.44;4906514;28;20115;-93
2024/02/13 08:41:23;;;;;;;11.13;3.95;;;;;;;4.87;100.00;99482.16;4929805;29;20054;-93
2024/02/13 08:43:51;;;;;;;8.13;2.90;;;;;;;4.95;100.00;99488.41;4925157;28;20043;-94
2024/02/13 08:46:19;;;;;;;6.68;2.35;;;;;;;4.97;100.00;99476.00;4921314;29;20035;-94
2024/02/13 08:48:50;;;;;;;12.63;2.78;;;;;;;5.01;100.00;99476.59;4922654;28;20145;-94
2024/02/13 08:51:18;;;;;;;7.97;2.85;;;;;;;5.05;100.00;99483.19;4929139;29;20038;-94
2024/02/13 08:53:48;;;;;;;6.75;2.28;;;;;;;5.08;100.00;99480.31;4941459;28;20667;-94
2024/02/13 08:56:15;;;;;;;10.52;2.80;;;;;;;5.08;100.00;99471.66;4928620;28;20697;-94
2024/02/13 08:58:42;;;;;;;10.52;2.80;;;;;;;5.07;100.00;99470.81;4960022;28;20125;-94
2024/02/13 09:01:08;;;;;;;10.50;2.78;;;;;;;5.13;100.00;99464.19;4927361;28;20112;-94
2024/02/13 09:03:34;;;;;;;8.68;3.17;;;;;;;5.22;100.00;99471.25;4938236;29;20039;-94
2024/02/13 09:06:04;;;;;;;7.28;3.42;;;;;;;5.29;100.00;99475.97;4942263;28;20042;-93
2024/02/13 09:08:37;;;;;;;6.78;2.83;;;;;;;5.33;100.00;99465.09;4957643;28;20099;-93
2024/02/13 09:11:03;;;;;;;4.38;2.40;;;;;;;5.31;100.00;99468.81;4937644;29;20106;-90
2024/02/13 09:13:29;;;;;;;12.35;3.55;;;;;;;5.27;100.00;99473.47;4940546;28;20054;-90
2024/02/13 09:15:55;;;;;;;5.22;2.92;;;;;;;5.22;100.00;99457.34;4925700;28;20587;-94
2024/02/13 09:18:22;;;;;;;8.23;2.47;;;;;;;5.26;100.00;99463.97;4927472;28;20026;-94
2024/02/13 09:20:49;;;;;;;8.23;2.95;;;;;;;5.24;100.00;99459.84;4928762;28;20039;-93
2024/02/13 09:23:18;;;;;;;8.98;2.10;;;;;;;5.21;100.00;99453.06;4956326;28;20041;-93
2024/02/13 09:25:49;;;;;;;9.68;2.67;;;;;;;5.27;100.00;99444.66;4925843;28;20114;-94
2024/02/13 09:28:18;;;;;;;5.88;2.55;;;;;;;5.27;100.00;99439.41;4939305;29;20054;-93
2024/02/13 09:30:47;;;;;;;5.80;1.95;;;;;;;5.22;100.00;99436.38;4943367;28;20038;-93
2024/02/13 09:33:14;;;;;;;6.68;1.90;;;;;;;5.26;100.00;99434.31;4949253;28;20039;-93
2024/02/13 09:35:40;;;;;;;4.90;2.20;;;;;;;5.26;100.00;99437.75;4928840;28;20090;-93
2024/02/13 09:38:06;;;;;;;9.50;2.38;;;;;;;5.27;100.00;99428.13;4947284;28;20031;-93
2024/02/13 09:40:33;;;;;;;12.80;2.53;;;;;;;5.32;100.00;99434.59;4931882;28;20046;-93
2024/02/13 09:42:59;;;;;;;6.43;1.85;;;;;;;5.38;100.00;99438.50;4943059;28;20050;-93
2024/02/13 09:45:26;;;;;;;7.85;2.60;;;;;;;5.44;100.00;99440.56;4922200;28;20097;-91
2024/02/13 09:47:56;;;;;;;6.68;2.22;;;;;;;5.44;100.00;99434.50;4929518;28;20035;-93
2024/02/13 09:50:26;;;;;;;6.60;2.53;;;;;;;5.51;100.00;99425.09;4958118;28;20031;-92
2024/02/13 09:52:57;;;;;;;8.63;2.00;;;;;;;5.61;100.00;99432.13;4916432;28;20046;-89
2024/02/13 09:55:23;;;;;;;9.80;2.53;;;;;;;5.69;100.00;99421.81;4947752;28;20129;-89
2024/02/13 09:57:50;;;;;;;9.85;2.47;;;;;;;5.77;100.00;99415.88;4932340;29;20557;-93
2024/02/13 10:00:18;;;;;;;5.50;2.45;;;;;;;5.87;100.00;99413.25;4931379;28;20051;-93
2024/02/13 10:02:48;;;;;;;7.43;2.00;;;;;;;5.94;100.00;99406.50;4905551;28;20050;-93
2024/02/13 10:05:15;;;;;;;10.98;2.60;;;;;;;5.95;100.00;99403.72;4919914;28;20126;-93
2024/02/13 10:07:41;;;;;;;3.70;1.55;;;;;;;5.98;100.00;99394.75;4901057;28;20102;-94
2024/02/13 10:10:11;;;;;;;9.02;1.70;;;;;;;6.05;100.00;99402.91;4925408;29;20039;-93
2024/02/13 10:12:52;;;;;;;9.77;1.75;;;;;;;6.12;100.00;99409.25;4918142;28;20048;-94
2024/02/13 10:15:19;;;;;;;5.95;1.95;;;;;;;6.01;100.00;99393.63;4939376;28;20089;-93
2024/02/13 10:17:45;;;;;;;8.00;1.80;;;;;;;6.06;100.00;99407.19;4899964;29;20498;-93
2024/02/13 10:20:17;;;;;;;5.15;1.88;;;;;;;6.15;100.00;99408.13;4919432;29;20093;-93
2024/02/13 10:22:46;;;;;;;4.80;1.90;;;;;;;6.18;100.00;99410.50;4923119;28;20181;-92
2024/02/13 10:25:21;;;;;;;6.00;2.45;;;;;;;6.21;100.00;99410.22;4930631;28;20047;-94
2024/02/13 10:27:53;;;;;;;8.00;1.98;;;;;;;6.32;100.00;99406.59;4922992;29;20039;-93
2024/02/13 10:30:30;;;;;;;4.72;1.98;;;;;;;6.45;100.00;99398.38;4921001;29;20047;-94
2024/02/13 10:33:00;;;;;;;2.92;1.70;;;;;;;6.54;100.00;99400.16;4921989;28;20041;-94
2024/02/13 10:35:30;;;;;;;6.70;2.15;;;;;;;6.59;100.00;99397.09;4921777;28;20045;-94
2024/02/13 10:37:57;;;;;;;11.68;2.88;;;;;;;6.62;100.00;99394.19;4924008;28;20038;-94
2024/02/13 10:40:28;;;;;;;4.70;2.33;;;;;;;6.75;100.00;99403.53;4917942;28;20049;-94
2024/02/13 10:42:55;;;;;;;5.68;2.30;;;;;;;6.69;100.00;99392.63;4905531;28;20133;-94
2024/02/13 10:45:40;;;;;;;10.73;2.40;;;;;;;6.80;100.00;99396.03;4919396;28;20034;-94
2024/02/13 10:48:32;;;;;;;;;;;;;;;6.75;100.00;99385.13;4915365;29;20046;-94
2024/02/13 10:51:00;;;;;;;7.80;2.30;;;;;;;6.75;100.00;99390.41;4933096;28;20377;-94
2024/02/13 10:53:27;;;;;;;6.13;2.17;;;;;;;6.81;100.00;99384.56;4936874;28;20437;-94
2024/02/13 10:55:54;;;;;;;10.55;2.10;;;;;;;6.89;100.00;99383.81;4899280;29;20511;-94
2024/02/13 10:58:29;;;;;;;6.20;2.20;;;;;;;7.06;100.00;99383.03;4920936;28;20082;-94
2024/02/13 11:00:59;;;;;;;2.70;1.55;;;;;;;7.15;100.00;99376.06;4938433;28;20038;-93
2024/02/13 11:03:27;;;;;;;3.72;1.67;;;;;;;7.25;100.00;99380.41;4928478;28;20157;-92
2024/02/13 11:05:53;;;;;;;4.43;1.70;;;;;;;7.31;100.00;99387.72;4919092;28;20458;-93
2024/02/13 11:08:20;;;;;;;5.03;1.80;;;;;;;7.46;100.00;99393.28;4942306;28;20049;-93
2024/02/13 11:10:46;;;;;;;5.40;1.55;;;;;;;7.51;100.00;99382.31;4941079;28;20046;-93
2024/02/13 11:13:12;;;;;;;4.00;1.83;;;;;;;7.61;100.00;99384.88;4941638;28;20026;-94
2024/02/13 11:15:40;;;;;;;3.72;2.28;;;;;;;7.72;100.00;99373.28;4934891;28;20047;-94
2024/02/13 11:18:18;;;;;;;6.07;1.58;;;;;;;7.77;100.00;99379.72;4937686;28;20062;-94
2024/02/13 11:20:50;;;;;;;6.32;1.50;;;;;;;7.88;100.00;99375.22;4935880;28;20034;-94
2024/02/13 11:23:35;;;;;;;3.20;0.65;;;;;;;7.79;100.00;99369.03;4929651;28;20042;-93
2024/02/13 11:26:01;;;;;;;4.72;1.83;;;;;;;7.84;100.00;99369.41;4951128;28;20031;-94
2024/02/13 11:28:38;;;;;;;5.47;0.63;;;;;;;7.91;100.00;99372.28;4938728;28;20126;-94
2024/02/13 11:31:14;;;;;;;3.50;0.60;;;;;;;7.87;100.00;99371.75;4943277;28;20035;-94
2024/02/13 11:34:00;;;;;;;3.50;0.90;;;;;;;7.89;100.00;99384.75;4939422;28;20044;-94
2024/02/13 11:36:27;;;;;;;6.47;0.75;;;;;;;7.87;100.00;99381.47;4959916;28;20042;-94
2024/02/13 11:38:57;;;;;;;1.65;0.60;;;;;;;7.91;100.00;99386.25;4944634;28;20089;-94
2024/02/13 11:41:23;;;;;;;1.15;0.50;;;;;;;7.93;100.00;99381.66;4950711;28;20065;-94
2024/02/13 11:43:49;;;;;;;1.73;0.55;;;;;;;7.93;100.00;99367.69;4936817;28;20049;-93